Time;durP1;ratioP1;P1;durP2;ratioP2;P2;SDS_P1;SDS_P2;PMS_P1;PMS_P2;Temp;Humidity;BMP_temperature;BMP_pressure;BME280_temperature;BME280_humidity;BME280_pressure;Samples;Min_cycle;Max_cycle;Signal;HPM_P1;HPM_P2
2022/04/11 00:01:33;;;;;;;0.20;0.20;;;;;;;18.78;38.44;101584.44;5134754;27;20101;-30
2022/04/11 00:03:59;;;;;;;0.20;0.20;;;;;;;18.77;38.51;101585.50;5135775;27;20466;-30
2022/04/11 00:06:24;;;;;;;0.20;0.20;;;;;;;18.78;38.80;101578.06;5138582;27;20091;-30
2022/04/11 00:08:50;;;;;;;0.20;0.20;;;;;;;18.78;38.70;101586.34;5137430;27;20035;-32
2022/04/11 00:11:15;;;;;;;0.20;0.20;;;;;;;18.78;38.76;101583.59;5138840;27;20416;-31
2022/04/11 00:13:41;;;;;;;0.22;0.22;;;;;;;18.79;38.75;101577.81;5135425;27;20071;-30
2022/04/11 00:16:07;;;;;;;0.20;0.20;;;;;;;18.79;38.69;101582.50;5138354;27;20067;-32
2022/04/11 00:18:34;;;;;;;0.20;0.20;;;;;;;18.78;38.75;101578.06;5136227;27;20063;-30
2022/04/11 00:21:00;;;;;;;0.20;0.20;;;;;;;18.77;38.75;101577.22;5137320;27;20067;-30
2022/04/11 00:23:26;;;;;;;0.20;0.20;;;;;;;18.77;38.69;101573.66;5137357;27;20038;-32
2022/04/11 00:25:52;;;;;;;0.20;0.20;;;;;;;18.78;38.67;101578.06;5140341;27;20047;-29
2022/04/11 00:28:17;;;;;;;0.20;0.20;;;;;;;18.77;38.82;101585.50;5137789;27;20055;-30
2022/04/11 00:30:43;;;;;;;0.20;0.20;;;;;;;18.77;38.66;101574.47;5137886;27;20039;-30
2022/04/11 00:33:09;;;;;;;0.20;0.20;;;;;;;18.77;38.52;101570.88;5137805;27;20481;-30
2022/04/11 00:35:35;;;;;;;0.20;0.20;;;;;;;18.78;38.81;101570.66;5138175;27;20047;-30
2022/04/11 00:38:00;;;;;;;0.20;0.20;;;;;;;18.77;38.70;101566.19;5138621;27;20091;-31
2022/04/11 00:40:26;;;;;;;0.20;0.20;;;;;;;18.78;38.77;101570.66;5139019;27;20038;-30
2022/04/11 00:42:52;;;;;;;0.20;0.20;;;;;;;18.78;38.74;101572.53;5116153;27;20043;-31
2022/04/11 00:45:17;;;;;;;0.20;0.20;;;;;;;18.77;38.75;101565.38;5137296;27;20397;-30
2022/04/11 00:47:45;;;;;;;0.20;0.20;;;;;;;18.77;38.62;101557.91;5119415;27;20043;-30
2022/04/11 00:50:13;;;;;;;0.20;0.20;;;;;;;18.78;38.71;101556.84;5100050;27;20137;-30
2022/04/11 00:52:41;;;;;;;0.20;0.20;;;;;;;18.78;38.69;101553.22;5125804;27;20175;-30
2022/04/11 00:55:07;;;;;;;;;;;;;;;18.78;38.63;101545.81;5124502;27;20108;-30
2022/04/11 00:57:33;;;;;;;0.20;0.20;;;;;;;18.76;38.45;101542.47;5143122;27;21269;-31
2022/04/11 00:59:59;;;;;;;0.20;0.20;;;;;;;18.76;38.79;101547.97;5137714;27;20388;-31
2022/04/11 01:02:25;;;;;;;0.20;0.20;;;;;;;18.78;38.65;101542.19;5135577;27;20431;-29
2022/04/11 01:04:51;;;;;;;0.20;0.20;;;;;;;18.76;38.70;101538.88;5143073;27;20063;-31
2022/04/11 01:07:19;;;;;;;0.20;0.20;;;;;;;18.77;38.73;101540.53;5137885;27;20055;-30
2022/04/11 01:09:45;;;;;;;0.20;0.20;;;;;;;18.76;38.68;101539.69;5142160;27;20088;-31
2022/04/11 01:12:13;;;;;;;0.20;0.20;;;;;;;18.77;38.49;101541.38;5139691;27;20047;-29
2022/04/11 01:14:38;;;;;;;0.20;0.20;;;;;;;18.78;38.57;101528.41;5138468;27;20080;-30
2022/04/11 01:17:04;;;;;;;0.20;0.20;;;;;;;18.77;38.58;101532.25;5122818;27;20046;-30
2022/04/11 01:19:30;;;;;;;0.20;0.20;;;;;;;18.77;38.59;101529.50;5117679;27;20540;-31
2022/04/11 01:21:56;;;;;;;0.20;0.20;;;;;;;18.77;38.59;101529.50;5139654;27;20489;-30
2022/04/11 01:24:22;;;;;;;0.20;0.20;;;;;;;18.78;38.53;101520.13;5140975;27;20358;-30
2022/04/11 01:26:48;;;;;;;0.20;0.20;;;;;;;18.79;38.49;101521.81;5123531;27;20043;-31
2022/04/11 01:29:16;;;;;;;0.20;0.20;;;;;;;18.76;38.65;101517.63;5101939;27;20133;-30
2022/04/11 01:31:41;;;;;;;0.30;0.30;;;;;;;18.78;38.74;101517.34;5136684;27;20531;-32
2022/04/11 01:34:07;;;;;;;0.20;0.20;;;;;;;18.77;38.78;101511.00;5136202;27;20042;-30
2022/04/11 01:36:32;;;;;;;0.30;0.30;;;;;;;18.77;38.61;101512.94;5118995;27;20082;-31
2022/04/11 01:38:58;;;;;;;0.20;0.20;;;;;;;18.77;38.45;101511.00;5139253;27;20129;-29
2022/04/11 01:41:24;;;;;;;0.20;0.20;;;;;;;18.77;38.56;101515.69;5140012;27;20099;-31
2022/04/11 01:43:49;;;;;;;0.20;0.20;;;;;;;18.77;38.66;101516.53;5139256;27;20051;-30
2022/04/11 01:46:15;;;;;;;0.20;0.20;;;;;;;18.77;38.69;101507.44;5138694;27;20043;-31
2022/04/11 01:48:41;;;;;;;0.30;0.30;;;;;;;18.77;38.68;101510.19;5142832;27;20393;-31
2022/04/11 01:51:07;;;;;;;0.20;0.20;;;;;;;18.79;38.54;101519.03;5136685;27;20482;-30
2022/04/11 01:53:33;;;;;;;0.20;0.20;;;;;;;18.78;38.57;101509.06;5120446;27;20039;-31
2022/04/11 01:55:58;;;;;;;0.20;0.20;;;;;;;18.78;38.61;101507.19;5140580;27;20043;-30
2022/04/11 01:58:24;;;;;;;0.20;0.20;;;;;;;18.78;38.64;101507.19;5143430;27;20046;-31
2022/04/11 02:00:50;;;;;;;0.20;0.20;;;;;;;18.78;38.44;101509.06;5122771;27;20083;-31
2022/04/11 02:03:16;;;;;;;0.20;0.20;;;;;;;18.76;38.74;101503.00;5140579;27;20091;-30
2022/04/11 02:05:42;;;;;;;0.20;0.20;;;;;;;18.77;38.47;101499.97;5139878;27;20046;-29
2022/04/11 02:08:10;;;;;;;0.20;0.20;;;;;;;18.78;38.76;101500.81;5140100;27;20042;-30
2022/04/11 02:10:37;;;;;;;0.20;0.20;;;;;;;18.78;38.60;101496.13;5123250;27;20057;-31
2022/04/11 02:13:03;;;;;;;0.20;0.20;;;;;;;18.79;38.56;101499.72;5136317;27;20092;-30
2022/04/11 02:15:29;;;;;;;0.20;0.20;;;;;;;18.77;38.51;101490.88;5137358;27;20128;-29
2022/04/11 02:17:55;;;;;;;0.20;0.20;;;;;;;18.77;38.67;101490.88;5142090;27;20511;-30
2022/04/11 02:20:21;;;;;;;0.30;0.30;;;;;;;18.77;38.56;101497.22;5139028;27;20537;-30
2022/04/11 02:22:50;;;;;;;0.20;0.20;;;;;;;18.77;38.68;101494.44;5138225;27;20063;-31
2022/04/11 02:25:16;;;;;;;;;;;;;;;18.76;38.66;101492.78;5139332;27;20137;-31
2022/04/11 02:27:42;;;;;;;0.20;0.20;;;;;;;18.77;38.58;101496.38;5139161;27;19982;-30
2022/04/11 02:30:09;;;;;;;0.20;0.20;;;;;;;18.75;38.61;101496.66;5141687;27;20078;-30
2022/04/11 02:32:34;;;;;;;0.20;0.20;;;;;;;18.76;38.58;101500.25;5119128;27;20089;-32
2022/04/11 02:35:00;;;;;;;0.20;0.20;;;;;;;18.77;38.59;101494.44;5116674;27;20043;-30
2022/04/11 02:37:25;;;;;;;0.20;0.20;;;;;;;18.77;38.62;101496.38;5120826;27;20741;-30
2022/04/11 02:39:51;;;;;;;0.22;0.22;;;;;;;18.76;38.46;101500.25;5138721;27;20043;-30
2022/04/11 02:42:25;;;;;;;0.20;0.20;;;;;;;18.76;38.60;101498.31;5138949;27;20039;-30
2022/04/11 02:44:51;;;;;;;0.20;0.20;;;;;;;18.76;38.44;101494.72;5109613;27;20122;-31
2022/04/11 02:47:18;;;;;;;0.20;0.20;;;;;;;18.76;38.38;101500.25;5122364;27;20043;-33
2022/04/11 02:49:44;;;;;;;0.20;0.20;;;;;;;18.76;38.70;101495.56;5133715;27;20082;-30
2022/04/11 02:52:09;;;;;;;0.20;0.20;;;;;;;18.76;38.50;101503.00;5120632;27;20133;-31
2022/04/11 02:54:36;;;;;;;0.20;0.20;;;;;;;18.77;38.49;101499.16;5120622;27;20051;-31
2022/04/11 02:57:02;;;;;;;0.20;0.20;;;;;;;18.76;38.56;101498.31;5139414;27;20126;-29
2022/04/11 02:59:28;;;;;;;0.20;0.20;;;;;;;18.76;38.61;101505.75;5117633;27;20069;-32
2022/04/11 03:01:55;;;;;;;0.20;0.20;;;;;;;18.77;38.42;101507.44;5139728;27;20053;-29
2022/04/11 03:04:21;;;;;;;0.20;0.20;;;;;;;18.76;38.67;101505.75;5122535;27;20059;-30
2022/04/11 03:06:46;;;;;;;0.20;0.20;;;;;;;18.75;38.51;101502.19;5141100;27;20043;-32
2022/04/11 03:09:12;;;;;;;0.20;0.20;;;;;;;18.76;38.62;101497.50;5122581;27;20051;-30
2022/04/11 03:11:38;;;;;;;0.20;0.20;;;;;;;18.76;38.57;101506.59;5141893;27;20382;-30
2022/04/11 03:14:03;;;;;;;0.20;0.20;;;;;;;18.76;38.53;101506.59;5140440;27;20059;-30
2022/04/11 03:16:29;;;;;;;0.20;0.20;;;;;;;18.77;38.63;101501.91;5121585;27;20043;-30
2022/04/11 03:18:55;;;;;;;0.30;0.30;;;;;;;18.74;38.59;101492.25;5139652;27;20038;-31
2022/04/11 03:21:20;;;;;;;0.20;0.20;;;;;;;18.75;38.75;101490.31;5135531;27;20057;-30
2022/04/11 03:23:46;;;;;;;0.20;0.20;;;;;;;18.75;38.36;101493.06;5137050;27;20043;-29
2022/04/11 03:26:11;;;;;;;0.20;0.20;;;;;;;18.76;38.72;101494.72;5135546;27;20043;-30
2022/04/11 03:28:37;;;;;;;0.30;0.30;;;;;;;18.75;38.68;101484.78;5136750;27;20046;-31
2022/04/11 03:31:03;;;;;;;0.20;0.20;;;;;;;18.75;38.72;101485.63;5136125;27;20153;-30
2022/04/11 03:33:28;;;;;;;0.20;0.20;;;;;;;18.75;38.43;101484.78;5138015;27;20496;-29
2022/04/11 03:35:54;;;;;;;0.20;0.20;;;;;;;18.76;38.76;101483.69;5138802;27;20035;-30
2022/04/11 03:38:20;;;;;;;0.20;0.20;;;;;;;18.75;38.40;101482.88;5139730;27;20066;-31
2022/04/11 03:40:45;;;;;;;0.20;0.20;;;;;;;18.74;38.53;101481.22;5134460;27;20050;-30
2022/04/11 03:43:11;;;;;;;0.20;0.20;;;;;;;18.75;38.52;101484.78;5139555;27;20042;-30
2022/04/11 03:45:37;;;;;;;0.20;0.20;;;;;;;18.74;38.46;101481.22;5138787;27;20062;-30
2022/04/11 03:48:03;;;;;;;0.20;0.20;;;;;;;18.74;38.57;101483.97;5137346;27;20039;-31
2022/04/11 03:50:28;;;;;;;0.20;0.20;;;;;;;18.74;38.44;101483.97;5139372;27;20038;-31
2022/04/11 03:52:54;;;;;;;0.20;0.20;;;;;;;18.75;38.44;101476.53;5137183;27;20082;-31
2022/04/11 03:55:20;;;;;;;0.20;0.20;;;;;;;18.73;38.46;101476.75;5136531;27;20051;-30
2022/04/11 03:57:45;;;;;;;0.20;0.20;;;;;;;18.74;38.55;101475.69;5136365;27;20043;-31
2022/04/11 04:00:12;;;;;;;0.20;0.20;;;;;;;18.75;38.85;101479.28;5136939;27;20091;-30
2022/04/11 04:02:38;;;;;;;0.30;0.30;;;;;;;18.75;38.64;101477.34;5120875;27;20070;-31
2022/04/11 04:05:04;;;;;;;0.20;0.20;;;;;;;18.75;38.57;101476.53;5138349;27;20098;-29
2022/04/11 04:07:30;;;;;;;0.20;0.20;;;;;;;18.75;38.59;101474.59;5139737;27;20447;-30
2022/04/11 04:09:55;;;;;;;0.20;0.20;;;;;;;18.75;38.81;101476.53;5138579;27;20300;-30
2022/04/11 04:12:21;;;;;;;0.20;0.20;;;;;;;18.75;38.43;101468.25;5135891;27;20044;-29
2022/04/11 04:14:48;;;;;;;0.20;0.20;;;;;;;18.75;38.49;101474.59;5118306;27;20122;-30
2022/04/11 04:17:14;;;;;;;0.20;0.20;;;;;;;18.74;38.36;101474.88;5119844;27;20122;-29
2022/04/11 04:19:40;;;;;;;0.20;0.20;;;;;;;18.76;38.72;101472.66;5137478;27;20061;-31
2022/04/11 04:22:06;;;;;;;0.20;0.20;;;;;;;18.74;38.46;101470.16;5147039;27;20050;-32
2022/04/11 04:24:34;;;;;;;0.20;0.20;;;;;;;18.74;38.38;101472.94;5140413;27;20138;-29
2022/04/11 04:27:01;;;;;;;0.20;0.20;;;;;;;18.74;38.52;101475.69;5142735;27;20078;-33
2022/04/11 04:29:27;;;;;;;0.20;0.20;;;;;;;18.74;38.44;101472.94;5141039;27;20079;-31
2022/04/11 04:31:54;;;;;;;0.20;0.20;;;;;;;18.74;38.62;101467.41;5140278;27;20780;-30
2022/04/11 04:34:20;;;;;;;0.30;0.30;;;;;;;18.74;38.59;101472.09;5121949;27;20051;-30
2022/04/11 04:36:47;;;;;;;0.20;0.20;;;;;;;18.74;38.59;101470.16;5142582;27;20531;-31
2022/04/11 04:39:12;;;;;;;0.20;0.20;;;;;;;18.75;38.54;101473.75;5122354;27;20114;-31
2022/04/11 04:41:38;;;;;;;0.20;0.20;;;;;;;18.75;38.45;101473.75;5115956;27;20489;-30
2022/04/11 04:44:06;;;;;;;0.20;0.20;;;;;;;18.74;38.41;101481.22;5139088;27;20046;-30
2022/04/11 04:46:33;;;;;;;0.20;0.20;;;;;;;18.74;38.51;101483.13;5140150;27;20071;-30
2022/04/11 04:48:58;;;;;;;0.20;0.20;;;;;;;18.74;38.41;101477.63;5138034;27;20051;-30
2022/04/11 04:51:24;;;;;;;0.20;0.20;;;;;;;18.74;38.68;101478.44;5141855;27;20106;-31
2022/04/11 04:53:50;;;;;;;0.20;0.20;;;;;;;18.74;38.45;101474.88;5124322;27;20133;-30
2022/04/11 04:56:16;;;;;;;0.20;0.20;;;;;;;18.73;38.43;101482.28;5121130;27;20043;-31
2022/04/11 04:58:45;;;;;;;0.20;0.20;;;;;;;18.74;38.45;101477.63;5137863;27;20046;-30
2022/04/11 05:01:11;;;;;;;0.20;0.20;;;;;;;18.72;38.48;101482.56;5123036;27;20086;-31
2022/04/11 05:03:37;;;;;;;0.20;0.20;;;;;;;18.74;38.60;101480.38;5140595;27;20074;-31
2022/04/11 05:06:03;;;;;;;0.30;0.30;;;;;;;18.72;38.48;101477.88;5120715;27;20065;-31
2022/04/11 05:08:29;;;;;;;0.20;0.20;;;;;;;18.73;38.57;101484.22;5143469;27;20133;-30
2022/04/11 05:10:54;;;;;;;0.20;0.20;;;;;;;18.74;38.54;101480.38;5140060;27;20047;-30
2022/04/11 05:13:22;;;;;;;0.20;0.20;;;;;;;18.73;38.46;101482.28;5138226;27;20116;-33
2022/04/11 05:15:48;;;;;;;0.20;0.20;;;;;;;18.74;38.52;101483.13;5138881;27;20387;-29
2022/04/11 05:18:14;;;;;;;0.20;0.20;;;;;;;18.73;38.42;101479.53;5141012;27;20070;-30
2022/04/11 05:20:41;;;;;;;0.20;0.20;;;;;;;18.73;38.33;101484.22;5140029;27;20097;-30
2022/04/11 05:23:06;;;;;;;0.20;0.20;;;;;;;18.72;38.66;101475.09;5139375;27;20078;-30
2022/04/11 05:25:32;;;;;;;0.20;0.20;;;;;;;18.73;38.48;101478.69;5138612;27;20049;-31
2022/04/11 05:27:58;;;;;;;0.20;0.20;;;;;;;18.73;38.38;101470.41;5140556;27;20042;-30
2022/04/11 05:30:24;;;;;;;0.20;0.20;;;;;;;18.73;38.57;101470.41;5138567;27;20129;-30
2022/04/11 05:32:49;;;;;;;0.20;0.20;;;;;;;18.73;38.34;101481.44;5121001;27;20046;-31
2022/04/11 05:35:15;;;;;;;0.20;0.20;;;;;;;18.73;38.58;101471.25;5143043;27;20119;-30
2022/04/11 05:37:43;;;;;;;0.20;0.20;;;;;;;18.73;38.33;101468.47;5137620;27;20054;-31
2022/04/11 05:40:09;;;;;;;0.20;0.20;;;;;;;18.73;38.50;101465.72;5143182;27;20038;-30
2022/04/11 05:42:37;;;;;;;0.30;0.30;;;;;;;18.72;38.47;101472.34;5122329;27;20254;-31
2022/04/11 05:45:04;;;;;;;0.20;0.20;;;;;;;18.72;38.23;101463.25;5138034;27;20492;-32
2022/04/11 05:47:30;;;;;;;0.20;0.20;;;;;;;18.72;38.53;101466.00;5140512;27;20529;-30
2022/04/11 05:49:55;;;;;;;0.20;0.20;;;;;;;18.72;38.54;101466.84;5137952;27;20084;-30
2022/04/11 05:52:21;;;;;;;0.20;0.20;;;;;;;18.73;38.38;101456.63;5120826;27;20076;-31
2022/04/11 05:54:47;;;;;;;0.20;0.20;;;;;;;18.72;38.36;101461.31;5121251;27;20039;-30
2022/04/11 05:57:13;;;;;;;0.20;0.20;;;;;;;18.72;38.40;101464.06;5138035;27;20035;-31
2022/04/11 05:59:38;;;;;;;0.20;0.20;;;;;;;18.72;38.58;101466.00;5103129;27;20088;-31
2022/04/11 06:02:04;;;;;;;0.20;0.20;;;;;;;18.71;38.49;101461.59;5139963;27;20043;-32
2022/04/11 06:04:30;;;;;;;0.22;0.22;;;;;;;18.72;38.45;101464.06;5120182;27;20122;-31
2022/04/11 06:06:55;;;;;;;0.20;0.20;;;;;;;18.72;38.46;101466.00;5138791;27;20047;-31
2022/04/11 06:09:21;;;;;;;0.20;0.20;;;;;;;18.72;38.36;101469.59;5134620;27;20050;-32
2022/04/11 06:11:47;;;;;;;0.20;0.20;;;;;;;18.71;38.38;101467.09;5139365;27;20042;-30
2022/04/11 06:14:12;;;;;;;0.20;0.20;;;;;;;18.73;38.69;101464.91;5144645;27;20042;-30
2022/04/11 06:16:38;;;;;;;0.20;0.20;;;;;;;18.73;38.59;101462.13;5137538;27;20043;-30
2022/04/11 06:19:04;;;;;;;0.20;0.20;;;;;;;18.73;38.45;101462.13;5135733;27;20513;-30
2022/04/11 06:21:29;;;;;;;0.20;0.20;;;;;;;18.72;38.38;101457.72;5138313;27;20474;-31
2022/04/11 06:23:55;;;;;;;0.20;0.20;;;;;;;18.72;38.22;101463.25;5142780;27;20038;-31
2022/04/11 06:26:21;;;;;;;0.20;0.20;;;;;;;18.72;38.48;101466.84;5139479;27;20051;-30
2022/04/11 06:28:47;;;;;;;0.20;0.20;;;;;;;18.72;38.39;101463.25;5139827;27;20046;-32
2022/04/11 06:31:14;;;;;;;0.20;0.20;;;;;;;18.71;38.27;101454.13;5133360;27;20051;-30
2022/04/11 06:33:40;;;;;;;0.20;0.20;;;;;;;18.71;38.32;101465.19;5124966;27;20445;-30
2022/04/11 06:36:06;;;;;;;0.20;0.20;;;;;;;18.71;38.43;101464.34;5122874;27;20035;-30
2022/04/11 06:38:31;;;;;;;0.20;0.20;;;;;;;18.71;38.28;101454.13;5137474;27;20058;-30
2022/04/11 06:40:57;;;;;;;0.20;0.20;;;;;;;18.72;38.50;101463.25;5137860;27;20152;-29
2022/04/11 06:43:23;;;;;;;0.20;0.20;;;;;;;18.70;38.35;101457.16;5140322;27;20046;-30
2022/04/11 06:45:49;;;;;;;0.20;0.20;;;;;;;18.71;38.61;101456.06;5123883;27;20142;-30
2022/04/11 06:48:15;;;;;;;0.20;0.20;;;;;;;18.72;38.53;101464.06;5137694;27;20077;-32
2022/04/11 06:50:42;;;;;;;0.20;0.20;;;;;;;18.70;38.25;101469.03;5144528;27;20125;-31
2022/04/11 06:53:09;;;;;;;0.20;0.20;;;;;;;18.71;38.43;101467.09;5143263;27;20477;-30
2022/04/11 06:55:35;;;;;;;0.20;0.20;;;;;;;18.71;38.38;101458.81;5124185;28;20485;-30
2022/04/11 06:58:01;;;;;;;0.20;0.20;;;;;;;18.72;38.55;101460.47;5121326;27;20469;-31
2022/04/11 07:00:27;;;;;;;0.20;0.20;;;;;;;18.72;38.42;101458.56;5139162;27;20133;-30
2022/04/11 07:02:53;;;;;;;0.20;0.20;;;;;;;18.71;38.38;101462.41;5140083;27;20452;-31
2022/04/11 07:05:19;;;;;;;0.30;0.30;;;;;;;18.70;38.38;101457.16;5143900;27;20057;-31
2022/04/11 07:07:45;;;;;;;0.20;0.20;;;;;;;18.71;38.40;101464.34;5140735;27;20079;-30
2022/04/11 07:10:11;;;;;;;0.20;0.20;;;;;;;18.69;38.53;101456.31;5141723;27;20053;-30
2022/04/11 07:12:38;;;;;;;0.20;0.20;;;;;;;18.70;38.33;101457.16;5142153;27;20058;-30
2022/04/11 07:15:06;;;;;;;0.25;0.25;;;;;;;18.71;38.38;101458.81;5141119;27;20077;-31
2022/04/11 07:17:32;;;;;;;0.20;0.20;;;;;;;18.70;38.40;101455.25;5137196;27;20468;-31
2022/04/11 07:19:57;;;;;;;0.20;0.20;;;;;;;18.71;38.44;101461.59;5141019;27;20082;-30
2022/04/11 07:22:24;;;;;;;0.20;0.20;;;;;;;18.71;38.53;101456.06;5144472;27;20478;-30
2022/04/11 07:24:49;;;;;;;0.20;0.20;;;;;;;18.71;38.31;101459.66;5144961;27;20046;-30
2022/04/11 07:27:15;;;;;;;0.20;0.20;;;;;;;18.69;38.48;101453.56;5141629;27;20038;-30
2022/04/11 07:29:41;;;;;;;0.20;0.20;;;;;;;18.70;38.61;101462.69;5116789;27;20057;-31
2022/04/11 07:32:07;;;;;;;0.20;0.20;;;;;;;18.70;38.24;101462.69;5137851;27;20036;-30
2022/04/11 07:34:32;;;;;;;0.20;0.20;;;;;;;18.70;38.33;101462.69;5122495;27;20129;-31
2022/04/11 07:36:58;;;;;;;0.20;0.20;;;;;;;18.68;38.21;101454.63;5135540;27;20057;-30
2022/04/11 07:39:24;;;;;;;0.20;0.20;;;;;;;18.70;38.42;101463.50;5137091;27;20047;-31
2022/04/11 07:41:53;;;;;;;0.20;0.20;;;;;;;18.69;38.49;101459.06;5134971;27;20051;-30
2022/04/11 07:44:19;;;;;;;0.20;0.20;;;;;;;18.69;38.40;101456.31;5107398;27;20066;-31
2022/04/11 07:46:45;;;;;;;0.20;0.20;;;;;;;18.68;38.32;101454.63;5117575;27;20119;-31
2022/04/11 07:49:10;;;;;;;0.20;0.20;;;;;;;18.69;38.28;101455.44;5137015;27;20055;-30
2022/04/11 07:51:36;;;;;;;0.20;0.20;;;;;;;18.70;38.44;101454.41;5136473;27;20055;-31
2022/04/11 07:54:02;;;;;;;0.20;0.20;;;;;;;18.69;38.39;101448.03;5137450;27;20138;-31
2022/04/11 07:56:29;;;;;;;0.30;0.30;;;;;;;18.69;38.30;101441.66;5105020;27;20377;-29
2022/04/11 07:58:55;;;;;;;0.20;0.20;;;;;;;18.70;38.32;101446.97;5122546;27;20047;-29
2022/04/11 08:01:22;;;;;;;0.25;0.25;;;;;;;18.68;38.09;101446.34;5143692;27;20105;-30
2022/04/11 08:03:48;;;;;;;0.30;0.30;;;;;;;18.70;38.36;101440.63;5139176;27;20047;-30
2022/04/11 08:06:14;;;;;;;0.20;0.20;;;;;;;18.68;38.26;101440.00;5141904;27;20048;-29
2022/04/11 08:08:47;;;;;;;0.20;0.20;;;;;;;18.68;38.23;101446.34;5143261;27;20122;-29
2022/04/11 08:11:14;;;;;;;0.20;0.20;;;;;;;18.69;38.20;101439.75;5130115;27;20045;-30
2022/04/11 08:13:46;;;;;;;0.20;0.20;;;;;;;18.70;38.30;101448.91;5142321;27;20046;-30
2022/04/11 08:16:12;;;;;;;0.20;0.20;;;;;;;18.70;38.65;101448.91;5126192;27;20135;-29
2022/04/11 08:18:38;;;;;;;0.20;0.20;;;;;;;18.69;38.36;101430.63;5144568;27;20035;-31
2022/04/11 08:21:04;;;;;;;0.20;0.20;;;;;;;18.70;38.24;101440.63;5124781;27;20043;-30
2022/04/11 08:23:30;;;;;;;0.20;0.20;;;;;;;18.68;38.38;101438.06;5123454;27;20079;-33
2022/04/11 08:25:56;;;;;;;0.20;0.20;;;;;;;18.70;38.27;101438.69;5140178;27;20106;-32
2022/04/11 08:28:23;;;;;;;0.20;0.20;;;;;;;18.69;38.34;101437.00;5142906;27;20053;-30
2022/04/11 08:30:49;;;;;;;0.20;0.20;;;;;;;18.70;38.50;101433.16;5144705;27;20042;-30
2022/04/11 08:33:15;;;;;;;0.30;0.30;;;;;;;18.70;38.29;101427.66;5117307;27;20035;-30
2022/04/11 08:35:41;;;;;;;0.30;0.30;;;;;;;18.68;38.40;101418.75;5137488;27;20135;-30
2022/04/11 08:38:06;;;;;;;0.20;0.20;;;;;;;18.68;38.20;101420.69;5123417;27;20533;-31
2022/04/11 08:40:32;;;;;;;0.20;0.20;;;;;;;18.69;38.10;101423.22;5140646;27;20582;-31
2022/04/11 08:42:59;;;;;;;0.20;0.20;;;;;;;18.69;38.31;101430.63;5122435;27;20050;-31
2022/04/11 08:45:26;;;;;;;0.20;0.20;;;;;;;18.70;38.31;101426.81;5140384;27;20457;-30
2022/04/11 08:47:56;;;;;;;0.25;0.25;;;;;;;18.69;38.34;101422.34;5107936;27;20043;-31
2022/04/11 08:50:24;;;;;;;0.20;0.20;;;;;;;18.68;38.33;101421.53;5122110;27;20085;-31
2022/04/11 08:52:51;;;;;;;0.20;0.20;;;;;;;18.69;38.25;101427.88;5141377;27;20078;-30
2022/04/11 08:55:17;;;;;;;0.20;0.20;;;;;;;18.70;38.17;101413.03;5138155;27;20461;-30
2022/04/11 08:57:43;;;;;;;0.30;0.30;;;;;;;18.67;38.06;101410.75;5145054;27;20469;-31
2022/04/11 09:00:12;;;;;;;0.20;0.20;;;;;;;18.68;38.33;101416.00;5137404;27;20126;-31
2022/04/11 09:02:39;;;;;;;0.20;0.20;;;;;;;18.68;38.29;101407.72;5140226;27;20039;-31
2022/04/11 09:05:05;;;;;;;0.20;0.20;;;;;;;18.67;38.38;101397.78;5138912;27;20397;-30
2022/04/11 09:07:52;;;;;;;0.20;0.20;;;;;;;18.67;38.06;101399.72;5137109;27;20206;-30
2022/04/11 09:10:23;;;;;;;0.20;0.20;;;;;;;18.68;38.39;101393.94;5140406;27;20058;-30
2022/04/11 09:12:50;;;;;;;0.20;0.20;;;;;;;18.68;38.28;101393.09;5118845;27;20125;-32
2022/04/11 09:15:16;;;;;;;0.30;0.30;;;;;;;18.67;38.37;101388.69;5144668;27;20046;-29
2022/04/11 09:17:43;;;;;;;0.20;0.20;;;;;;;18.68;38.26;101393.09;5119525;27;20093;-30
2022/04/11 09:20:11;;;;;;;0.30;0.30;;;;;;;18.68;38.26;101385.66;5117547;27;20100;-30
2022/04/11 09:22:41;;;;;;;0.25;0.25;;;;;;;18.68;38.16;101384.81;5120062;27;20469;-32
2022/04/11 09:25:23;;;;;;;0.30;0.30;;;;;;;18.67;38.22;101384.00;5140290;27;20089;-31
2022/04/11 09:28:07;;;;;;;0.20;0.20;;;;;;;18.68;38.19;101377.38;5145269;27;20118;-31
2022/04/11 09:30:34;;;;;;;0.20;0.20;;;;;;;18.67;38.22;101375.72;5120958;27;20042;-31
2022/04/11 09:33:02;;;;;;;0.20;0.20;;;;;;;18.66;38.31;101378.75;5119647;27;20127;-30
2022/04/11 09:35:31;;;;;;;0.20;0.20;;;;;;;18.68;38.48;101388.41;5124968;27;20115;-29
2022/04/11 09:38:15;;;;;;;0.20;0.20;;;;;;;18.68;38.24;101373.78;5119506;27;20078;-30
2022/04/11 09:40:48;;;;;;;0.20;0.20;;;;;;;18.67;38.35;101386.75;5118252;27;20047;-30
2022/04/11 09:43:16;;;;;;;0.28;0.28;;;;;;;18.67;38.40;101377.66;5123346;27;20423;-30
2022/04/11 09:45:43;;;;;;;0.30;0.30;;;;;;;18.67;38.20;101381.25;5140488;27;20130;-31
2022/04/11 09:48:09;;;;;;;0.20;0.20;;;;;;;18.67;38.31;101377.66;5142436;27;20480;-31
2022/04/11 09:50:35;;;;;;;0.30;0.30;;;;;;;18.69;38.23;101375.44;5138280;27;20051;-30
2022/04/11 09:53:10;;;;;;;0.20;0.20;;;;;;;18.66;38.35;101371.31;5119058;27;20053;-31
2022/04/11 09:55:36;;;;;;;0.20;0.20;;;;;;;18.68;38.46;101374.63;5127207;27;20080;-29
2022/04/11 09:58:03;;;;;;;0.20;0.20;;;;;;;18.68;38.33;101373.78;5105003;27;20130;-30
2022/04/11 10:00:29;;;;;;;0.20;0.20;;;;;;;18.69;38.31;101378.22;5120013;27;20459;-31
2022/04/11 10:02:57;;;;;;;0.20;0.20;;;;;;;18.68;38.29;101382.06;5141607;27;20094;-29
2022/04/11 10:05:24;;;;;;;0.20;0.20;;;;;;;18.67;38.43;101372.97;5145470;27;20043;-32
2022/04/11 10:07:54;;;;;;;0.28;0.28;;;;;;;18.68;38.32;101362.75;5139195;27;20544;-31
2022/04/11 10:10:21;;;;;;;0.30;0.30;;;;;;;18.67;38.20;101361.94;5137205;27;20464;-30
2022/04/11 10:12:47;;;;;;;0.30;0.30;;;;;;;18.66;38.18;101354.75;5139577;27;20077;-30
2022/04/11 10:15:13;;;;;;;0.20;0.20;;;;;;;18.65;38.13;101361.38;5140766;27;20043;-30
2022/04/11 10:17:38;;;;;;;0.25;0.25;;;;;;;18.66;38.09;101351.16;5120829;27;20073;-30
2022/04/11 10:20:05;;;;;;;0.20;0.20;;;;;;;18.66;38.25;101340.97;5137327;27;20054;-30
2022/04/11 10:22:35;;;;;;;0.20;0.20;;;;;;;18.67;38.21;101348.13;5122890;27;20516;-30
2022/04/11 10:25:05;;;;;;;0.20;0.20;;;;;;;18.68;38.15;101343.44;5144419;27;20074;-30
2022/04/11 10:27:31;;;;;;;0.20;0.20;;;;;;;18.68;38.30;101337.94;5122333;27;20533;-31
2022/04/11 10:29:56;;;;;;;0.20;0.20;;;;;;;18.67;38.43;101334.34;5122564;27;21033;-30
2022/04/11 10:32:24;;;;;;;0.20;0.20;;;;;;;18.68;38.45;101335.16;5136024;27;20065;-31
2022/04/11 10:34:54;;;;;;;0.20;0.20;;;;;;;18.68;38.25;101335.16;5142546;27;20073;-29
2022/04/11 10:37:22;;;;;;;0.20;0.20;;;;;;;18.68;38.18;101321.38;5118322;27;20507;-30
2022/04/11 10:39:48;;;;;;;0.20;0.20;;;;;;;18.67;38.23;101317.78;5119312;27;20133;-30
2022/04/11 10:42:19;;;;;;;0.20;0.20;;;;;;;18.68;38.20;101315.84;5120950;27;20142;-30
2022/04/11 10:44:46;;;;;;;0.20;0.20;;;;;;;18.66;38.37;101316.13;5125959;27;20081;-30
2022/04/11 10:52:36;;;;;;;0.20;0.20;;;;;;;18.65;38.25;101314.47;5178614;27;20139;-23
2022/04/11 10:55:18;;;;;;;0.20;0.20;;;;;;;18.65;38.11;101306.22;5158107;27;20043;-23
2022/04/11 10:57:46;;;;;;;0.20;0.20;;;;;;;18.67;38.35;101306.75;5120473;27;20773;-24
2022/04/11 11:00:19;;;;;;;0.20;0.20;;;;;;;18.67;38.14;101300.41;5157622;27;20086;-24
2022/04/11 11:05:48;;;;;;;0.20;0.20;;;;;;;18.65;38.23;101289.66;5178325;27;20575;-24
2022/04/11 11:11:20;;;;;;;0.20;0.20;;;;;;;18.67;38.01;101289.38;5160223;27;20205;-27
2022/04/11 11:13:46;;;;;;;0.20;0.20;;;;;;;18.65;38.11;101275.88;5144588;27;20505;-27
2022/04/11 11:24:10;;;;;;;0.20;0.20;;;;;;;18.66;38.38;101260.13;5166963;27;20202;-28
2022/04/11 11:26:47;;;;;;;0.20;0.20;;;;;;;18.67;38.09;101256.28;5132020;27;20461;-28
2022/04/11 11:29:18;;;;;;;0.20;0.20;;;;;;;18.65;38.19;101253.78;5129885;27;20055;-29
2022/04/11 11:31:45;;;;;;;0.20;0.20;;;;;;;18.66;38.17;101251.84;5128090;27;20127;-27
2022/04/11 11:34:13;;;;;;;0.20;0.20;;;;;;;18.66;38.13;101252.69;5150014;27;20039;-27
2022/04/11 11:36:40;;;;;;;0.20;0.20;;;;;;;18.66;38.10;101247.16;5128000;27;20062;-28
2022/04/11 11:39:16;;;;;;;0.20;0.20;;;;;;;18.67;38.13;101245.22;5133474;27;21215;-28
2022/04/11 11:41:44;;;;;;;0.25;0.25;;;;;;;18.67;38.09;101250.75;5140322;27;20103;-27
2022/04/11 11:44:10;;;;;;;0.20;0.20;;;;;;;18.66;38.14;101238.91;5118313;27;20217;-27